Time;durP1;ratioP1;P1;durP2;ratioP2;P2;SDS_P1;SDS_P2;PMS_P1;PMS_P2;Temp;Humidity;BMP_temperature;BMP_pressure;BME280_temperature;BME280_humidity;BME280_pressure;Samples;Min_cycle;Max_cycle;Signal;HPM_P1;HPM_P2
2023/06/19 00:01:49;;;;;;;6.10;5.50;;;;;;;23.95;46.32;98636.50;7237914;40;20237;31
2023/06/19 00:07:23;;;;;;;5.82;5.22;;;;;;;23.96;45.94;98654.66;7171397;40;20352;31
2023/06/19 00:12:43;;;;;;;6.05;5.45;;;;;;;24.09;45.58;98656.94;7130615;40;20256;31
2023/06/19 00:18:06;;;;;;;7.45;5.55;;;;;;;24.26;45.90;98665.06;7189127;40;20257;31
2023/06/19 00:23:41;;;;;;;6.12;5.53;;;;;;;24.31;47.25;98658.75;7179089;40;20312;31
2023/06/19 00:29:16;;;;;;;6.65;5.30;;;;;;;24.34;48.41;98674.75;7184329;40;20233;31
2023/06/19 00:34:51;;;;;;;7.60;5.40;;;;;;;24.30;48.43;98682.72;7214237;40;20292;31
2023/06/19 00:40:29;;;;;;;5.90;5.20;;;;;;;24.29;49.17;98705.03;7188743;40;20259;31
2023/06/19 00:46:04;;;;;;;7.53;5.30;;;;;;;24.14;49.43;98723.06;7188391;40;20449;31
2023/06/19 00:56:44;;;;;;;5.60;5.10;;;;;;;23.99;52.22;98713.91;7254820;40;21019;31
2023/06/19 01:02:23;;;;;;;5.10;4.58;;;;;;;23.90;53.16;98710.81;7319217;39;20376;31
2023/06/19 01:07:54;;;;;;;6.00;4.10;;;;;;;23.88;52.85;98713.00;7234507;40;20256;31
2023/06/19 01:13:30;;;;;;;3.75;3.40;;;;;;;23.86;53.12;98712.44;7198730;40;20450;31
2023/06/19 01:19:05;;;;;;;5.60;3.20;;;;;;;23.80;53.63;98706.06;7156089;40;20243;31
2023/06/19 01:24:41;;;;;;;3.40;3.10;;;;;;;23.77;54.31;98712.09;7198945;40;20242;31
2023/06/19 01:30:16;;;;;;;4.47;2.93;;;;;;;23.64;54.97;98701.53;7143671;40;20491;31
2023/06/19 01:35:51;;;;;;;2.50;2.30;;;;;;;23.61;55.65;98701.22;7159542;40;20270;31
2023/06/19 01:41:26;;;;;;;3.22;2.53;;;;;;;23.56;57.60;98731.47;7118162;40;20258;31
2023/06/19 01:47:00;;;;;;;5.60;2.53;;;;;;;23.30;58.72;98722.13;7166439;40;20314;31
2023/06/19 01:52:35;;;;;;;3.25;2.95;;;;;;;23.19;58.87;98706.59;7179387;40;20239;31
2023/06/19 01:58:11;;;;;;;3.05;2.75;;;;;;;23.28;58.53;98711.38;7216071;40;20262;31
2023/06/19 02:03:31;;;;;;;3.50;3.20;;;;;;;23.30;58.95;98725.69;7213226;40;20433;31
2023/06/19 02:09:07;;;;;;;3.30;3.00;;;;;;;23.31;59.47;98757.59;7231377;40;20245;31
2023/06/19 02:14:43;;;;;;;3.20;2.90;;;;;;;23.36;59.53;98748.56;7210991;40;20292;31
2023/06/19 02:20:20;;;;;;;3.45;3.00;;;;;;;23.30;60.10;98764.19;7232913;40;20427;31
2023/06/19 02:25:39;;;;;;;4.68;3.55;;;;;;;23.11;62.11;98784.91;7238989;40;20316;31
2023/06/19 02:31:13;;;;;;;5.37;3.28;;;;;;;22.71;64.29;98787.97;7211845;40;20340;31
2023/06/19 02:36:19;;;;;;;4.10;3.17;;;;;;;22.84;63.58;98801.34;7219399;40;20269;31
2023/06/19 02:41:54;;;;;;;3.85;3.05;;;;;;;22.59;65.12;98805.63;7232572;40;20299;31
2023/06/19 02:47:31;;;;;;;3.90;3.50;;;;;;;22.57;64.72;98807.78;7248379;40;20435;31
2023/06/19 02:52:51;;;;;;;4.50;3.70;;;;;;;22.55;63.83;98818.22;7275023;40;20248;31
2023/06/19 02:58:26;;;;;;;3.80;3.50;;;;;;;22.50;63.93;98810.75;7240093;40;20453;31
2023/06/19 03:04:02;;;;;;;3.47;3.10;;;;;;;22.39;64.32;98823.47;7192590;40;20533;31
2023/06/19 03:09:37;;;;;;;4.22;3.40;;;;;;;22.39;63.21;98820.72;7217503;40;20276;31
2023/06/19 03:14:58;;;;;;;4.32;3.30;;;;;;;22.44;63.20;98822.72;7287161;39;20256;31
2023/06/19 03:20:34;;;;;;;4.20;3.00;;;;;;;22.50;63.14;98829.97;7318156;39;20389;31
2023/06/19 03:25:54;;;;;;;3.10;2.80;;;;;;;22.50;62.42;98845.62;7300057;39;20272;31
2023/06/19 03:31:29;;;;;;;3.80;3.10;;;;;;;22.42;63.71;98836.69;7279078;40;20245;31
2023/06/19 03:37:06;;;;;;;3.37;3.00;;;;;;;22.51;63.04;98826.09;7279248;40;20264;31
2023/06/19 03:42:26;;;;;;;5.15;3.50;;;;;;;22.61;61.49;98841.91;7306921;39;20240;31
2023/06/19 03:47:46;;;;;;;4.00;2.87;;;;;;;22.57;62.60;98838.00;7281237;40;20501;31
2023/06/19 03:53:22;;;;;;;3.95;3.15;;;;;;;22.51;63.60;98847.28;7260759;40;20256;31
2023/06/19 03:58:58;;;;;;;4.68;3.30;;;;;;;22.50;62.90;98859.34;7277108;39;20240;31
2023/06/19 04:04:18;;;;;;;6.25;3.30;;;;;;;22.43;64.52;98870.50;7267063;39;20245;31
2023/06/19 04:09:54;;;;;;;4.10;3.30;;;;;;;22.43;64.15;98865.00;7332136;39;20267;31
2023/06/19 04:15:31;;;;;;;4.12;3.40;;;;;;;22.39;63.95;98874.81;7298552;39;20256;31
2023/06/19 04:20:52;;;;;;;3.56;3.26;;;;;;;22.25;64.73;98877.06;7206635;40;20242;31
2023/06/19 04:26:27;;;;;;;3.40;3.05;;;;;;;22.20;65.47;98876.19;7199164;40;20234;31
2023/06/19 04:32:11;;;;;;;3.92;3.53;;;;;;;22.24;65.04;98872.69;7237009;40;20253;31
2023/06/19 04:37:38;;;;;;;3.45;3.10;;;;;;;22.35;64.57;98873.66;7194788;40;20285;31
2023/06/19 04:43:14;;;;;;;5.57;3.45;;;;;;;22.55;63.84;98870.41;7262315;40;20260;31
2023/06/19 04:48:36;;;;;;;4.25;3.10;;;;;;;22.59;63.23;98874.31;7216765;40;20336;31
2023/06/19 04:53:55;;;;;;;4.00;3.42;;;;;;;22.53;64.25;98867.06;7264719;40;20489;31
2023/06/19 04:59:31;;;;;;;4.70;3.80;;;;;;;22.69;62.69;98864.31;7257397;40;20273;31
2023/06/19 05:05:05;;;;;;;5.33;3.40;;;;;;;22.76;63.54;98862.25;7251693;40;20443;31
2023/06/19 05:10:26;;;;;;;4.28;3.25;;;;;;;22.83;62.51;98873.87;7236619;40;20316;31
2023/06/19 05:16:01;;;;;;;4.20;3.70;;;;;;;22.87;62.70;98871.44;7237364;40;20245;31
2023/06/19 05:21:37;;;;;;;4.34;3.64;;;;;;;22.93;63.09;98875.94;7223596;40;20253;31
2023/06/19 05:27:13;;;;;;;4.22;3.50;;;;;;;22.89;63.56;98883.03;7229728;40;20261;31
2023/06/19 05:32:49;;;;;;;3.55;3.20;;;;;;;22.83;64.44;98882.13;7219311;40;20245;31
2023/06/19 05:38:28;;;;;;;3.30;3.00;;;;;;;22.76;64.23;98873.25;7187657;40;20266;31
2023/06/19 05:43:44;;;;;;;3.55;3.22;;;;;;;22.86;64.70;98870.63;7070876;40;20276;31
2023/06/19 05:49:19;;;;;;;4.07;3.67;;;;;;;22.89;64.49;98863.78;7237331;40;20272;31
2023/06/19 05:54:54;;;;;;;3.60;3.30;;;;;;;23.07;64.49;98880.00;7230775;40;20498;31
2023/06/19 06:00:32;;;;;;;4.20;3.80;;;;;;;23.10;63.19;98876.72;7297014;39;20424;31
2023/06/19 06:06:03;;;;;;;3.83;3.53;;;;;;;23.13;64.06;98872.59;7297261;40;20241;31
2023/06/19 06:11:37;;;;;;;4.87;3.87;;;;;;;23.19;63.50;98880.69;7245707;40;20381;31
2023/06/19 06:16:58;;;;;;;6.60;4.10;;;;;;;23.30;63.98;98887.97;7228904;40;20421;31
2023/06/19 06:22:34;;;;;;;4.45;3.92;;;;;;;23.28;63.68;98889.31;7199179;40;20246;31
2023/06/19 06:27:54;;;;;;;5.80;4.28;;;;;;;23.27;63.92;98899.47;7188573;40;20276;31
2023/06/19 06:33:15;;;;;;;4.70;4.30;;;;;;;23.32;64.33;98901.47;7264025;40;20248;31
2023/06/19 06:38:48;;;;;;;4.68;4.20;;;;;;;23.39;63.62;98909.53;7325803;39;20239;31
2023/06/19 06:44:20;;;;;;;6.25;4.62;;;;;;;23.40;64.41;98913.94;7324744;39;20437;31
2023/06/19 06:49:52;;;;;;;4.80;4.32;;;;;;;23.44;64.01;98939.88;7293446;39;20232;31
2023/06/19 06:55:28;;;;;;;5.65;4.60;;;;;;;23.41;64.40;98937.62;7271591;40;20256;31
2023/06/19 07:00:57;;;;;;;5.70;4.40;;;;;;;23.42;64.46;98944.78;7267689;39;20445;31
2023/06/19 07:06:17;;;;;;;5.32;4.80;;;;;;;23.45;64.04;98956.13;7220055;40;20254;31
2023/06/19 07:11:54;;;;;;;6.05;5.15;;;;;;;23.44;64.76;98954.47;7221228;40;20345;31
2023/06/19 07:17:14;;;;;;;5.00;4.50;;;;;;;23.33;65.03;98953.50;7207263;40;20352;31
2023/06/19 07:22:49;;;;;;;6.40;4.20;;;;;;;23.49;64.31;98961.97;7255989;40;21590;31
2023/06/19 07:28:25;;;;;;;4.90;4.40;;;;;;;23.62;63.99;98978.91;7205680;40;20349;31
2023/06/19 07:33:45;;;;;;;4.90;4.40;;;;;;;23.61;64.14;98977.25;7229828;40;20446;31
2023/06/19 07:39:20;;;;;;;5.60;5.00;;;;;;;23.52;65.49;98980.72;7219372;40;20361;31
2023/06/19 07:44:53;;;;;;;7.43;4.82;;;;;;;23.45;65.19;98994.66;7227365;40;20436;31
2023/06/19 07:50:13;;;;;;;6.75;5.05;;;;;;;23.48;64.66;98999.62;7236499;40;20356;31
2023/06/19 07:55:35;;;;;;;6.03;5.00;;;;;;;23.56;65.08;98999.22;7303846;39;20549;31
2023/06/19 08:01:11;;;;;;;6.20;4.90;;;;;;;23.47;64.99;98999.91;7285642;40;21313;31
2023/06/19 08:06:46;;;;;;;6.15;4.50;;;;;;;23.56;65.45;98998.38;7234156;40;20251;31
2023/06/19 08:12:17;;;;;;;5.07;4.57;;;;;;;23.53;64.70;98996.13;7264885;39;21464;31
2023/06/19 08:22:57;;;;;;;6.80;4.80;;;;;;;23.59;65.74;99006.97;7285965;39;21340;31
2023/06/19 08:28:32;;;;;;;5.75;4.90;;;;;;;23.56;64.26;99013.00;7270900;40;20324;31
2023/06/19 08:33:53;;;;;;;7.00;4.47;;;;;;;23.51;65.54;99020.34;7219138;40;20430;31
2023/06/19 08:39:28;;;;;;;5.20;4.70;;;;;;;23.63;64.99;99023.78;7239750;40;20335;31
2023/06/19 08:45:03;;;;;;;4.80;4.30;;;;;;;23.73;63.85;99018.44;7245038;40;20273;31
2023/06/19 08:50:38;;;;;;;5.55;5.05;;;;;;;23.73;63.78;99015.66;7265851;39;20266;31
2023/06/19 09:01:18;;;;;;;5.00;4.40;;;;;;;24.19;63.05;99006.88;7282653;39;21140;31
2023/06/19 09:11:44;;;;;;;7.80;4.50;;;;;;;24.34;62.54;99013.62;7290744;39;21170;31
2023/06/19 09:22:35;;;;;;;6.95;5.10;;;;;;;24.79;61.59;99016.00;7300119;39;20736;31
2023/06/19 09:33:21;;;;;;;5.97;4.15;;;;;;;24.91;60.54;99000.13;7271292;40;21142;31
2023/06/19 09:38:55;;;;;;;5.30;4.30;;;;;;;25.01;60.56;99003.75;7258089;40;20250;31
2023/06/19 09:44:31;;;;;;;5.50;4.20;;;;;;;25.36;59.16;98997.63;7225481;40;20321;31
2023/06/19 09:50:07;;;;;;;6.68;4.35;;;;;;;25.99;57.85;98987.47;7255865;40;20454;31
2023/06/19 10:00:49;;;;;;;5.90;4.20;;;;;;;26.32;56.92;98980.66;7209646;40;20352;31
2023/06/19 10:06:23;;;;;;;4.72;4.30;;;;;;;26.21;57.24;98981.75;7248239;40;20329;31
2023/06/19 10:11:59;;;;;;;5.30;4.80;;;;;;;26.30;57.49;98982.88;7249441;39;20802;31
2023/06/19 10:17:35;;;;;;;5.00;4.40;;;;;;;26.34;56.46;98979.28;7320676;39;20246;31
2023/06/19 10:23:16;;;;;;;6.50;4.35;;;;;;;26.58;56.67;98976.81;7267223;40;20245;31
2023/06/19 10:28:45;;;;;;;4.87;4.37;;;;;;;27.05;55.15;98967.41;7269167;40;20430;31
2023/06/19 10:34:21;;;;;;;4.72;4.18;;;;;;;27.39;54.04;98959.28;7256939;39;20254;31
2023/06/19 10:44:45;;;;;;;5.80;4.25;;;;;;;27.84;53.76;98961.09;7239048;40;21207;31
2023/06/19 10:50:22;;;;;;;4.35;3.95;;;;;;;28.08;51.32;98949.03;7272834;39;20241;31
2023/06/19 10:55:58;;;;;;;4.40;4.00;;;;;;;28.50;51.66;98939.34;7287641;39;20534;31
2023/06/19 11:01:33;;;;;;;5.82;4.40;;;;;;;28.45;50.88;98920.78;7297707;40;20357;31
2023/06/19 11:07:10;;;;;;;3.80;3.50;;;;;;;28.53;51.10;98917.38;7246462;40;20343;31
2023/06/19 11:12:28;;;;;;;4.47;3.60;;;;;;;28.61;48.90;98925.09;7174751;40;20249;31
2023/06/19 11:17:59;;;;;;;4.50;3.40;;;;;;;28.29;49.28;98923.97;7240198;40;20352;31
2023/06/19 11:23:41;;;;;;;4.20;3.80;;;;;;;28.07;49.99;98914.13;7204429;40;20241;31
2023/06/19 11:29:13;;;;;;;3.98;3.56;;;;;;;28.16;50.42;98917.97;7245093;40;20254;31
2023/06/19 11:34:49;;;;;;;4.15;3.40;;;;;;;28.05;50.36;98918.28;7240851;40;20253;31
2023/06/19 11:40:23;;;;;;;5.20;3.76;;;;;;;28.28;49.74;98920.38;7269648;40;20401;31
2023/06/19 11:46:01;;;;;;;5.35;3.80;;;;;;;28.58;49.78;98914.56;7249323;39;20308;31
2023/06/19 11:51:22;;;;;;;4.43;3.60;;;;;;;28.66;49.19;98915.88;7286514;39;20442;31
2023/06/19 12:02:02;;;;;;;4.22;3.45;;;;;;;28.92;47.97;98903.44;7308099;39;20268;31
2023/06/19 12:07:39;;;;;;;3.90;3.37;;;;;;;29.01;48.39;98900.88;7319356;39;20274;31
2023/06/19 12:13:11;;;;;;;4.10;3.70;;;;;;;29.16;47.44;98883.22;7287061;39;20241;31
2023/06/19 12:18:48;;;;;;;4.55;3.55;;;;;;;29.13;47.21;98879.09;7296930;39;20260;31
2023/06/19 12:24:24;;;;;;;3.95;3.55;;;;;;;28.93;46.73;98887.63;7010817;40;21389;31
2023/06/19 12:29:45;;;;;;;4.25;3.30;;;;;;;29.41;46.82;98883.75;7212355;40;20269;31
2023/06/19 12:40:27;;;;;;;3.67;3.37;;;;;;;29.29;45.99;98879.72;7233805;40;20296;31
2023/06/19 12:45:46;;;;;;;4.90;3.50;;;;;;;29.05;46.02;98879.72;7275525;40;21452;31
2023/06/19 12:51:02;;;;;;;7.87;4.47;;;;;;;28.93;47.15;98882.09;7287025;39;20233;31
2023/06/19 12:56:36;;;;;;;5.87;3.53;;;;;;;28.99;46.54;98884.53;7316811;39;20278;31
2023/06/19 13:02:09;;;;;;;4.60;3.50;;;;;;;28.83;46.53;98885.78;7263557;39;20445;31
2023/06/19 13:07:30;;;;;;;4.05;3.45;;;;;;;28.60;48.13;98883.78;7262289;40;20261;31
2023/06/19 13:13:05;;;;;;;4.56;3.60;;;;;;;28.56;47.27;98869.69;7244886;40;20301;31
2023/06/19 13:18:39;;;;;;;3.83;3.50;;;;;;;28.61;47.78;98868.81;7193224;40;20262;31
2023/06/19 13:24:14;;;;;;;3.53;3.22;;;;;;;28.82;45.93;98861.12;7257944;40;20332;31
2023/06/19 13:29:51;;;;;;;4.15;3.25;;;;;;;29.26;46.56;98863.66;7258529;40;20307;31
2023/06/19 13:35:12;;;;;;;3.80;3.30;;;;;;;29.46;45.30;98849.53;7245218;39;20260;31
2023/06/19 13:40:30;;;;;;;5.40;3.20;;;;;;;29.60;44.70;98849.63;7254986;40;20262;31
2023/06/19 13:46:03;;;;;;;4.45;3.00;;;;;;;29.78;44.83;98849.66;7236067;40;20256;31
2023/06/19 13:51:38;;;;;;;3.24;2.94;;;;;;;29.77;44.44;98842.44;7224268;40;20351;31
2023/06/19 13:56:55;;;;;;;3.57;2.97;;;;;;;29.64;44.02;98839.56;7277758;39;20244;31
2023/06/19 14:02:28;;;;;;;4.40;3.45;;;;;;;29.63;43.94;98849.03;7283330;39;20282;31
2023/06/19 14:07:49;;;;;;;3.75;3.45;;;;;;;29.35;44.52;98857.19;7235212;40;20250;31
2023/06/19 14:13:06;;;;;;;3.72;3.42;;;;;;;29.29;45.83;98846.41;7239063;40;20245;31
2023/06/19 14:18:39;;;;;;;8.73;3.20;;;;;;;29.36;44.98;98831.06;7271563;40;20291;31
2023/06/19 14:24:12;;;;;;;5.57;3.60;;;;;;;29.47;45.02;98832.59;7214025;40;20280;31
2023/06/19 14:29:34;;;;;;;5.45;3.70;;;;;;;29.32;45.95;98830.00;7235557;40;20261;31
2023/06/19 14:35:10;;;;;;;4.85;4.03;;;;;;;29.27;46.49;98812.56;7218134;40;20269;31
2023/06/19 14:40:30;;;;;;;3.90;3.60;;;;;;;29.23;45.65;98808.72;7228704;40;20268;31
2023/06/19 14:45:50;;;;;;;4.32;3.90;;;;;;;29.01;46.19;98810.09;7205480;40;20316;31
2023/06/19 14:51:26;;;;;;;4.17;3.77;;;;;;;28.86;47.47;98821.41;7178968;40;20349;31
2023/06/19 14:56:43;;;;;;;4.07;3.67;;;;;;;28.78;47.00;98815.66;7184288;40;20569;31
2023/06/19 15:02:20;;;;;;;5.72;3.60;;;;;;;28.68;47.88;98797.16;7263572;40;21534;31
2023/06/19 15:07:54;;;;;;;3.70;3.40;;;;;;;28.78;47.00;98808.16;7261815;39;20360;31
2023/06/19 15:13:26;;;;;;;5.00;3.40;;;;;;;28.86;47.84;98801.12;7225279;40;20289;31
2023/06/19 15:18:46;;;;;;;4.03;3.55;;;;;;;28.82;47.71;98805.63;7205470;40;20261;31
2023/06/19 15:24:24;;;;;;;7.95;4.10;;;;;;;28.79;47.81;98800.66;7241061;40;20253;31
2023/06/19 15:29:59;;;;;;;4.06;3.76;;;;;;;28.78;48.00;98812.87;7242334;40;20253;31
2023/06/19 15:35:31;;;;;;;6.18;3.50;;;;;;;28.58;49.31;98798.06;7171777;40;20608;31
2023/06/19 15:41:07;;;;;;;4.10;3.72;;;;;;;28.50;49.94;98790.41;7177535;40;20246;31
2023/06/19 15:46:27;;;;;;;4.30;3.90;;;;;;;28.60;51.21;98784.75;7140615;40;20274;31
2023/06/19 15:51:47;;;;;;;6.87;4.10;;;;;;;28.76;51.34;98774.31;7161123;40;20439;31
2023/06/19 15:57:24;;;;;;;4.10;3.70;;;;;;;28.73;50.42;98760.22;7204309;40;20253;31
2023/06/19 16:02:59;;;;;;;4.32;3.96;;;;;;;28.89;50.92;98756.13;7214247;40;20262;31
2023/06/19 16:08:34;;;;;;;4.20;3.60;;;;;;;28.89;48.89;98750.59;7235908;40;20285;31
2023/06/19 16:19:12;;;;;;;4.97;3.42;;;;;;;28.90;48.89;98746.69;7259203;40;20273;31
2023/06/19 16:24:47;;;;;;;6.65;3.80;;;;;;;28.96;48.10;98749.09;7266261;40;20330;31
2023/06/19 16:30:17;;;;;;;4.30;3.90;;;;;;;28.94;48.48;98745.81;7278985;39;20415;31
2023/06/19 16:35:50;;;;;;;3.95;3.62;;;;;;;28.99;46.73;98753.22;7237056;40;20366;31
2023/06/19 16:46:29;;;;;;;3.85;3.45;;;;;;;29.34;46.77;98747.22;7215511;40;20254;31
2023/06/19 16:57:10;;;;;;;14.82;11.64;;;;;;;29.33;46.29;98748.34;7213878;40;20282;31
2023/06/19 17:07:49;;;;;;;3.80;3.50;;;;;;;28.97;47.45;98744.37;7227925;40;20287;31
2023/06/19 17:13:25;;;;;;;6.00;5.22;;;;;;;28.97;48.98;98742.41;7215310;40;20247;31
2023/06/19 17:18:46;;;;;;;8.64;5.24;;;;;;;28.95;48.71;98735.53;7201757;40;20294;31
2023/06/19 17:24:07;;;;;;;4.47;3.90;;;;;;;28.84;49.43;98734.81;7216974;40;20245;31
2023/06/19 17:29:42;;;;;;;4.20;3.80;;;;;;;28.75;47.33;98735.75;7226684;40;20319;31
2023/06/19 17:35:15;;;;;;;4.00;3.60;;;;;;;28.78;47.58;98746.28;7215087;40;20332;31
2023/06/19 17:40:49;;;;;;;3.75;3.35;;;;;;;28.67;46.37;98745.53;7238132;40;20268;31
2023/06/19 17:46:26;;;;;;;6.44;3.88;;;;;;;28.48;47.66;98739.12;7287732;39;20261;31
2023/06/19 17:51:47;;;;;;;3.70;3.40;;;;;;;28.49;47.47;98749.91;7249053;39;20242;31
2023/06/19 17:57:22;;;;;;;4.24;3.68;;;;;;;28.47;49.15;98757.72;7265157;40;20249;31
2023/06/19 18:02:58;;;;;;;4.75;4.35;;;;;;;28.40;50.00;98748.06;7233201;40;20307;31
2023/06/19 18:08:19;;;;;;;5.60;3.92;;;;;;;28.36;49.52;98747.84;7216942;40;20250;31
2023/06/19 18:13:58;;;;;;;4.35;3.95;;;;;;;28.25;49.17;98749.06;7221590;40;20315;31
2023/06/19 18:19:20;;;;;;;11.30;4.60;;;;;;;28.19;50.83;98739.12;7248912;40;20343;31
2023/06/19 18:24:41;;;;;;;4.50;4.10;;;;;;;28.09;51.85;98733.66;7224510;40;20270;31
2023/06/19 18:30:16;;;;;;;4.80;4.30;;;;;;;27.87;53.04;98749.94;7223815;40;20250;31
2023/06/19 18:35:53;;;;;;;5.00;4.37;;;;;;;27.67;52.69;98739.84;7197901;40;20286;31
2023/06/19 18:41:28;;;;;;;4.50;4.10;;;;;;;27.58;53.29;98745.19;7185959;40;20368;31
2023/06/19 18:47:04;;;;;;;5.95;3.90;;;;;;;27.42;54.04;98751.91;7176916;40;20273;31
2023/06/19 18:52:41;;;;;;;5.20;4.70;;;;;;;27.36;54.38;98741.97;7170173;40;20328;31
2023/06/19 18:58:02;;;;;;;6.57;4.50;;;;;;;27.28;54.68;98745.38;7179228;40;20254;31
2023/06/19 19:03:37;;;;;;;4.37;4.00;;;;;;;27.15;55.12;98734.94;7180031;40;20246;31
2023/06/19 19:09:14;;;;;;;5.70;4.40;;;;;;;27.03;55.09;98737.22;7196446;40;20246;31
2023/06/19 19:14:31;;;;;;;5.47;4.97;;;;;;;27.03;55.49;98738.00;7051268;40;21153;31
2023/06/19 19:19:51;;;;;;;6.05;5.40;;;;;;;26.97;55.44;98741.09;7272236;40;20240;31
2023/06/19 19:25:27;;;;;;;19.70;15.15;;;;;;;26.79;56.48;98737.84;7254970;40;20280;31
2023/06/19 19:31:02;;;;;;;8.00;7.20;;;;;;;26.66;56.26;98732.91;7213202;40;20265;31
2023/06/19 19:36:22;;;;;;;5.15;4.25;;;;;;;26.54;56.66;98726.88;7207330;40;20504;31
2023/06/19 19:41:56;;;;;;;5.56;5.06;;;;;;;26.38;57.22;98736.31;7204533;40;20299;31
2023/06/19 19:52:36;;;;;;;6.10;5.14;;;;;;;26.23;58.35;98751.00;7282120;40;20450;31
2023/06/19 20:03:14;;;;;;;8.00;6.43;;;;;;;26.03;58.23;98768.38;7256493;40;20369;31
2023/06/19 20:08:49;;;;;;;4.85;4.40;;;;;;;25.80;59.10;98779.97;7257041;40;20257;31
2023/06/19 20:14:24;;;;;;;6.05;4.90;;;;;;;25.73;58.82;98776.69;7242883;39;20264;31
2023/06/19 20:20:02;;;;;;;5.30;4.90;;;;;;;25.65;58.63;98788.28;7256793;40;20246;31
2023/06/19 20:25:35;;;;;;;6.00;5.40;;;;;;;25.45;58.88;98771.66;7228495;40;20331;31
2023/06/19 20:31:10;;;;;;;5.25;4.75;;;;;;;25.27;58.86;98764.72;7235365;40;20265;31
2023/06/19 20:36:46;;;;;;;5.15;4.65;;;;;;;25.26;59.31;98762.22;7168033;40;20387;31
2023/06/19 20:42:21;;;;;;;5.70;5.10;;;;;;;25.11;59.76;98751.97;7157603;40;20321;31
2023/06/19 20:47:41;;;;;;;5.30;4.80;;;;;;;25.00;60.14;98751.13;7213234;40;20237;31
2023/06/19 20:53:18;;;;;;;4.93;4.53;;;;;;;24.88;60.89;98747.75;7219298;40;20249;31
2023/06/19 20:58:57;;;;;;;6.60;5.87;;;;;;;24.83;60.32;98752.41;7217909;40;20247;31
2023/06/19 21:04:32;;;;;;;6.90;4.90;;;;;;;24.77;60.99;98743.28;7220616;40;20324;31
2023/06/19 21:10:08;;;;;;;5.85;5.00;;;;;;;24.55;60.55;98748.16;7229950;40;20277;31
2023/06/19 21:15:28;;;;;;;6.05;5.43;;;;;;;24.37;61.94;98749.44;7229885;40;20258;31
2023/06/19 21:21:04;;;;;;;5.58;5.00;;;;;;;24.34;62.35;98749.97;7253204;40;20271;31
2023/06/19 21:26:40;;;;;;;6.35;4.95;;;;;;;24.35;61.80;98739.78;7271434;40;20331;31
2023/06/19 21:32:16;;;;;;;4.95;4.55;;;;;;;24.36;62.33;98741.41;7208802;40;20243;31
2023/06/19 21:37:36;;;;;;;5.25;4.75;;;;;;;24.40;61.55;98731.50;7192643;40;20266;31
2023/06/19 21:43:13;;;;;;;5.47;4.97;;;;;;;24.33;62.08;98718.00;7200887;40;20342;31
2023/06/19 21:48:33;;;;;;;5.10;4.60;;;;;;;24.42;61.44;98719.16;7227762;40;20249;31
2023/06/19 21:53:54;;;;;;;4.95;4.50;;;;;;;24.47;61.30;98715.59;7245299;40;20265;31
2023/06/19 21:59:30;;;;;;;5.12;4.62;;;;;;;24.38;61.99;98714.44;7264067;40;20237;31
2023/06/19 22:05:05;;;;;;;5.32;4.62;;;;;;;24.41;61.51;98716.66;7251136;40;20258;31
2023/06/19 22:10:25;;;;;;;5.70;5.10;;;;;;;24.46;61.19;98723.03;7237311;40;20320;31
2023/06/19 22:16:01;;;;;;;6.40;4.40;;;;;;;24.30;63.37;98737.00;7253609;40;20245;31
2023/06/19 22:21:36;;;;;;;5.55;4.95;;;;;;;24.29;62.89;98758.19;7248423;40;20252;31
2023/06/19 22:26:56;;;;;;;8.17;5.17;;;;;;;24.45;62.78;98770.12;7217156;40;20258;31
2023/06/19 22:32:33;;;;;;;5.50;5.00;;;;;;;24.47;64.26;98798.25;7222141;40;20249;31
2023/06/19 22:38:08;;;;;;;6.78;6.03;;;;;;;24.45;65.74;98787.50;7287128;40;20360;31
2023/06/19 22:43:43;;;;;;;9.02;5.93;;;;;;;24.29;66.27;98773.91;7320707;39;20287;31
2023/06/19 22:49:19;;;;;;;5.98;5.24;;;;;;;24.30;68.03;98742.50;7237688;40;20258;31
2023/06/19 22:54:40;;;;;;;6.00;5.50;;;;;;;23.95;70.46;98727.38;7186592;40;20262;31
2023/06/19 23:00:15;;;;;;;7.65;6.95;;;;;;;23.65;70.59;98721.63;7226157;40;20264;31
2023/06/19 23:05:53;;;;;;;8.02;6.37;;;;;;;23.70;70.55;98732.66;7177277;40;20505;31
2023/06/19 23:11:27;;;;;;;7.40;6.35;;;;;;;23.67;70.30;98744.22;7224200;40;20276;31
2023/06/19 23:17:01;;;;;;;6.80;6.10;;;;;;;23.88;70.59;98765.28;7208286;40;20342;31
2023/06/19 23:22:35;;;;;;;6.58;5.92;;;;;;;23.99;69.29;98780.81;7244544;40;20511;31
2023/06/19 23:27:56;;;;;;;8.30;6.50;;;;;;;24.10;69.41;98817.50;7237787;40;21074;31
2023/06/19 23:33:31;;;;;;;8.28;6.58;;;;;;;24.00;69.49;98836.72;7273207;40;20253;31
2023/06/19 23:39:08;;;;;;;8.98;6.48;;;;;;;23.94;71.08;98819.31;7259472;40;20320;31
2023/06/19 23:44:26;;;;;;;7.85;6.80;;;;;;;23.91;70.68;98786.81;7258790;40;20248;31
2023/06/19 23:49:47;;;;;;;7.10;6.50;;;;;;;23.91;70.43;98777.72;7277611;39;20252;31
2023/06/19 23:55:21;;;;;;;7.00;6.30;;;;;;;23.84;71.37;98777.94;7275797;39;20244;31
